Time;durP1;ratioP1;P1;durP2;ratioP2;P2;SDS_P1;SDS_P2;PMS_P1;PMS_P2;Temp;Humidity;BMP_temperature;BMP_pressure;BME280_temperature;BME280_humidity;BME280_pressure;Samples;Min_cycle;Max_cycle;Signal;HPM_P1;HPM_P2
2022/11/04 00:01:57;;;;;;;3.20;1.85;;;;;;;12.34;84.31;99404.00;5012065;28;20513;-78
2022/11/04 00:04:25;;;;;;;2.20;2.00;;;;;;;12.31;84.52;99409.19;5015206;28;20582;-78
2022/11/04 00:06:51;;;;;;;4.07;1.83;;;;;;;12.31;84.62;99411.91;5019372;28;20438;-77
2022/11/04 00:09:24;;;;;;;3.72;1.30;;;;;;;12.28;84.08;99412.47;5030582;28;20383;-78
2022/11/04 00:14:34;;;;;;;1.90;1.02;;;;;;;12.29;83.50;99414.91;5030729;28;20433;-78
2022/11/04 00:17:20;;;;;;;3.30;1.20;;;;;;;12.28;83.29;99410.53;5029683;28;20390;-77
2022/11/04 00:30:53;;;;;;;1.40;0.70;;;;;;;12.17;82.65;99476.09;5027960;28;20433;-78
2022/11/04 00:33:24;;;;;;;1.00;1.00;;;;;;;12.18;82.73;99486.69;5018187;28;20431;-78
2022/11/04 00:35:51;;;;;;;0.70;0.70;;;;;;;12.20;82.33;99473.63;5030340;28;20402;-77
2022/11/04 00:38:17;;;;;;;0.70;0.70;;;;;;;12.18;82.02;99473.09;5020196;28;20388;-77
2022/11/04 00:40:42;;;;;;;0.60;0.60;;;;;;;12.15;82.02;99467.41;5028803;28;20417;-77
2022/11/04 00:43:08;;;;;;;0.60;0.60;;;;;;;12.13;82.01;99469.59;5006621;28;20785;-78
2022/11/04 00:45:33;;;;;;;0.73;0.67;;;;;;;12.16;81.85;99480.72;5030185;28;20407;-77
2022/11/04 00:47:58;;;;;;;0.67;0.60;;;;;;;12.18;81.95;99483.97;5052365;28;20766;-78
2022/11/04 00:50:23;;;;;;;0.57;0.57;;;;;;;12.14;81.89;99485.63;5015182;28;21037;-78
2022/11/04 00:52:49;;;;;;;1.17;0.60;;;;;;;12.13;81.96;99496.75;5024924;28;20481;-78
2022/11/04 00:55:14;;;;;;;2.77;0.80;;;;;;;12.12;81.83;99495.13;5006070;28;20491;-78
2022/11/04 00:57:40;;;;;;;0.73;0.73;;;;;;;12.04;81.75;99496.53;5030046;28;20415;-77
2022/11/04 01:00:06;;;;;;;0.40;0.40;;;;;;;12.07;81.58;99497.84;5027779;28;20541;-77
2022/11/04 01:02:31;;;;;;;1.27;0.73;;;;;;;12.09;81.46;99485.63;5018882;28;20495;-78
2022/11/04 01:04:56;;;;;;;0.70;0.60;;;;;;;12.10;81.66;99491.88;5002513;28;20559;-78
2022/11/04 01:07:22;;;;;;;3.33;0.70;;;;;;;12.10;81.48;99489.97;5030077;28;20402;-78
2022/11/04 01:09:48;;;;;;;1.40;0.80;;;;;;;12.10;81.47;99489.97;5029664;28;20402;-78
2022/11/04 01:12:13;;;;;;;0.57;0.57;;;;;;;12.07;81.58;99495.97;5026538;28;20897;-78
2022/11/04 01:14:39;;;;;;;1.97;0.80;;;;;;;12.11;81.38;99486.16;5045530;28;20390;-78
2022/11/04 01:17:04;;;;;;;0.70;0.60;;;;;;;12.06;81.69;99494.31;5033665;28;20398;-78
2022/11/04 01:19:30;;;;;;;0.80;0.60;;;;;;;12.07;81.74;99497.84;5065639;28;20425;-78
2022/11/04 01:21:55;;;;;;;0.40;0.40;;;;;;;12.08;81.49;99483.19;5028044;28;20417;-78
2022/11/04 01:24:20;;;;;;;3.10;0.80;;;;;;;12.07;81.77;99487.81;5028497;28;20406;-78
2022/11/04 01:26:46;;;;;;;1.60;0.60;;;;;;;12.09;81.81;99479.38;5032744;28;20390;-78
2022/11/04 01:29:11;;;;;;;0.60;0.50;;;;;;;12.10;81.66;99479.09;5021573;28;20882;-78
2022/11/04 01:31:36;;;;;;;2.00;0.70;;;;;;;12.07;81.94;99471.53;5031225;28;20789;-79
2022/11/04 01:34:02;;;;;;;2.10;0.63;;;;;;;12.07;81.77;99482.38;5033343;28;20403;-78
2022/11/04 01:36:28;;;;;;;0.87;0.60;;;;;;;12.07;81.97;99495.97;5032017;28;20392;-77
2022/11/04 01:38:55;;;;;;;1.25;0.75;;;;;;;12.07;81.76;99493.25;5048574;28;20830;-78
2022/11/04 01:41:24;;;;;;;1.43;0.87;;;;;;;12.06;81.77;99490.78;5031449;28;20442;-77
2022/11/04 01:43:58;;;;;;;0.55;0.55;;;;;;;12.05;81.63;99490.00;5033071;28;20874;-78
2022/11/04 01:46:32;;;;;;;1.52;0.55;;;;;;;12.03;81.60;99494.06;5007584;28;20405;-78
2022/11/04 01:49:24;;;;;;;0.50;0.50;;;;;;;12.05;81.56;99497.34;5033169;28;20391;-78
2022/11/04 01:52:06;;;;;;;2.60;0.50;;;;;;;12.02;81.43;99504.09;5030825;28;21026;-78
2022/11/04 01:54:33;;;;;;;0.53;0.53;;;;;;;12.02;81.90;99500.59;5006029;28;20470;-78
2022/11/04 01:57:01;;;;;;;2.03;0.60;;;;;;;11.99;82.10;99499.22;5015402;28;20402;-79
2022/11/04 01:59:35;;;;;;;1.27;0.63;;;;;;;11.98;81.64;99499.53;5031196;28;20406;-79
2022/11/04 02:02:02;;;;;;;0.68;0.68;;;;;;;11.97;81.59;99498.72;5025428;28;20772;-78
2022/11/04 02:04:28;;;;;;;1.40;0.60;;;;;;;11.95;81.54;99504.41;5021610;28;20403;-78
2022/11/04 02:06:59;;;;;;;0.55;0.55;;;;;;;11.93;81.67;99498.44;5019326;28;20769;-78
2022/11/04 02:09:27;;;;;;;2.22;0.70;;;;;;;11.91;81.39;99497.94;5031390;28;20403;-78
2022/11/04 02:14:38;;;;;;;2.05;0.55;;;;;;;11.82;81.45;99496.06;5023977;28;20534;-79
2022/11/04 02:17:13;;;;;;;3.17;0.70;;;;;;;11.81;81.38;99494.44;5032464;28;20402;-79
2022/11/04 02:20:01;;;;;;;1.37;0.70;;;;;;;11.84;80.93;99502.00;5017144;28;20878;-79
2022/11/04 02:23:16;;;;;;;2.30;0.60;;;;;;;11.83;81.10;99501.19;5030627;28;20498;-78
2022/11/04 02:26:13;;;;;;;2.50;0.60;;;;;;;11.81;80.85;99494.44;4955953;28;20416;-78
2022/11/04 02:29:17;;;;;;;0.68;0.57;;;;;;;11.83;80.83;99487.63;5032433;28;20535;-79
2022/11/04 02:32:21;;;;;;;2.25;0.70;;;;;;;11.79;80.73;99491.16;5014770;28;20504;-79
2022/11/04 02:35:00;;;;;;;1.65;0.60;;;;;;;11.80;80.71;99492.78;5026581;28;20399;-79
2022/11/04 02:37:54;;;;;;;2.38;0.70;;;;;;;11.78;80.71;99475.97;5005388;28;20392;-79
2022/11/04 02:40:43;;;;;;;6.72;4.03;;;;;;;11.77;80.68;99480.59;4988982;28;20475;-79
2022/11/04 02:43:24;;;;;;;2.55;0.95;;;;;;;11.75;80.61;99488.22;5027002;28;20427;-78
2022/11/04 02:46:03;;;;;;;1.13;0.65;;;;;;;11.82;80.35;99491.41;5031070;28;20403;-78
2022/11/04 02:48:42;;;;;;;1.53;0.80;;;;;;;11.90;79.90;99490.88;5063857;28;20400;-78
2022/11/04 02:51:14;;;;;;;1.85;0.65;;;;;;;11.86;79.86;99497.09;5027619;28;20432;-79
2022/11/04 02:53:46;;;;;;;2.35;0.70;;;;;;;11.84;80.29;99496.59;5038232;28;20391;-79
2022/11/04 02:56:13;;;;;;;1.20;0.57;;;;;;;11.83;80.10;99503.09;5029130;28;20804;-79
2022/11/04 02:58:48;;;;;;;1.10;0.70;;;;;;;11.83;80.14;99495.78;5031511;28;20383;-79
2022/11/04 03:01:17;;;;;;;1.55;0.60;;;;;;;11.85;80.14;99503.66;5028012;28;20498;-78
2022/11/04 03:03:48;;;;;;;1.10;0.63;;;;;;;11.83;80.00;99501.19;5031628;28;20423;-78
2022/11/04 03:06:18;;;;;;;3.30;0.90;;;;;;;11.82;80.21;99509.63;5031277;28;20423;-79
2022/11/04 03:08:48;;;;;;;1.35;0.70;;;;;;;11.85;80.20;99509.09;5021961;28;20768;-78
2022/11/04 03:11:17;;;;;;;2.22;0.60;;;;;;;11.80;79.87;99501.75;5026844;28;20489;-79
2022/11/04 03:14:06;;;;;;;1.40;0.60;;;;;;;11.82;79.91;99494.13;5023236;28;20407;-78
2022/11/04 03:16:48;;;;;;;0.60;0.60;;;;;;;11.80;79.88;99477.31;5004904;28;20418;-79
2022/11/04 03:19:40;;;;;;;1.40;0.50;;;;;;;11.82;79.84;99485.19;5019408;28;20761;-79
2022/11/04 03:22:13;;;;;;;0.40;0.40;;;;;;;11.81;80.08;99497.97;5013006;28;20759;-78
2022/11/04 03:24:40;;;;;;;1.50;0.40;;;;;;;11.79;80.16;99489.25;5015351;28;20891;-79
2022/11/04 03:27:18;;;;;;;1.65;0.55;;;;;;;11.78;80.21;99494.97;5017907;28;20940;-79
2022/11/04 03:29:55;;;;;;;1.92;0.65;;;;;;;11.75;80.36;99488.22;5016182;28;20427;-78
2022/11/04 03:32:29;;;;;;;1.20;0.43;;;;;;;11.68;80.27;99490.38;5023556;28;20405;-79
2022/11/04 03:34:54;;;;;;;1.60;0.60;;;;;;;11.68;80.25;99500.41;5021060;28;20490;-78
2022/11/04 03:37:20;;;;;;;0.95;0.50;;;;;;;11.68;80.42;99513.97;5024854;28;20478;-79
2022/11/04 03:39:45;;;;;;;1.30;0.50;;;;;;;11.68;80.18;99503.94;5028018;28;20475;-79
2022/11/04 03:42:19;;;;;;;1.20;0.50;;;;;;;11.71;80.06;99497.97;5027548;28;20462;-78
2022/11/04 03:44:51;;;;;;;0.60;0.60;;;;;;;11.68;80.30;99490.38;5019350;28;20410;-79
2022/11/04 03:47:18;;;;;;;0.60;0.60;;;;;;;11.68;80.27;99508.53;5028221;28;20411;-79
2022/11/04 03:49:46;;;;;;;2.50;0.70;;;;;;;11.70;79.92;99504.50;5025197;28;20943;-79
2022/11/04 03:52:12;;;;;;;2.88;0.60;;;;;;;11.72;79.89;99499.59;5024188;28;20775;-79
2022/11/04 03:54:38;;;;;;;2.15;0.60;;;;;;;11.73;80.07;99498.50;5020356;28;20409;-79
2022/11/04 03:57:25;;;;;;;0.70;0.57;;;;;;;11.74;80.04;99510.19;5030662;28;20834;-79
2022/11/04 04:00:08;;;;;;;0.95;0.75;;;;;;;11.74;79.84;99502.84;5026232;28;20414;-79
2022/11/04 04:02:58;;;;;;;1.47;0.63;;;;;;;11.76;80.05;99483.56;5011033;28;20502;-79
2022/11/04 04:05:29;;;;;;;0.88;0.70;;;;;;;11.74;80.19;99481.16;5030283;28;20492;-79
2022/11/04 04:08:11;;;;;;;2.00;0.70;;;;;;;11.74;79.85;99494.72;5027298;28;20458;-79
2022/11/04 04:10:43;;;;;;;3.35;0.80;;;;;;;11.73;79.99;99489.53;5016561;28;20395;-79
2022/11/04 04:13:18;;;;;;;3.10;1.35;;;;;;;11.71;80.28;99481.69;5022355;28;20461;-79
2022/11/04 04:15:49;;;;;;;2.20;1.55;;;;;;;11.67;80.44;99480.59;5028681;28;20392;-79
2022/11/04 04:18:22;;;;;;;2.90;1.40;;;;;;;11.66;80.59;99475.41;4994899;28;20406;-79
2022/11/04 04:20:49;;;;;;;6.95;2.38;;;;;;;11.65;80.63;99474.63;5017953;28;20407;-79
2022/11/04 04:28:56;;;;;;;4.30;3.53;;;;;;;11.64;80.71;99472.19;5022968;28;20427;-79
2022/11/04 04:34:08;;;;;;;3.25;1.48;;;;;;;11.58;80.80;99470.56;5020627;28;20422;-79
2022/11/04 04:36:42;;;;;;;2.20;1.20;;;;;;;11.50;81.14;99477.38;5021106;28;20387;-79
2022/11/04 04:47:30;;;;;;;5.43;1.35;;;;;;;11.48;80.98;99486.88;5029761;28;20442;-79
2022/11/04 04:49:59;;;;;;;4.80;1.40;;;;;;;11.49;80.93;99483.09;5026005;28;20796;-79
2022/11/04 04:52:29;;;;;;;2.40;0.80;;;;;;;11.45;80.77;99471.97;5023079;28;20764;-79
2022/11/04 04:54:54;;;;;;;1.33;0.80;;;;;;;11.43;80.80;99460.56;5029323;28;20895;-79
2022/11/04 04:57:20;;;;;;;2.83;1.17;;;;;;;11.41;81.30;99466.28;5021033;28;20486;-79
2022/11/04 04:59:45;;;;;;;2.60;0.95;;;;;;;11.42;81.06;99461.66;5033875;28;20457;-79
2022/11/04 05:02:10;;;;;;;0.90;0.73;;;;;;;11.41;81.05;99460.84;5029883;28;20494;-79
2022/11/04 05:04:36;;;;;;;8.77;1.00;;;;;;;11.41;80.94;99455.41;5030964;28;20410;-78
2022/11/04 05:07:01;;;;;;;4.27;0.77;;;;;;;11.38;80.86;99460.56;5028186;28;20457;-79
2022/11/04 05:09:27;;;;;;;1.70;0.90;;;;;;;11.41;80.84;99458.13;5021934;28;20398;-78
2022/11/04 05:11:52;;;;;;;2.07;0.70;;;;;;;11.46;80.58;99460.81;5033135;28;20403;-79
2022/11/04 05:14:17;;;;;;;7.23;1.77;;;;;;;11.50;80.59;99450.22;5023123;28;20409;-79
2022/11/04 05:16:43;;;;;;;2.00;0.80;;;;;;;11.54;80.37;99447.78;5023220;28;20416;-79
2022/11/04 05:19:08;;;;;;;1.90;1.00;;;;;;;11.61;80.08;99448.31;5022530;28;20417;-79
2022/11/04 05:21:33;;;;;;;2.23;1.00;;;;;;;11.66;79.61;99438.25;5033451;28;20414;-79
2022/11/04 05:23:59;;;;;;;4.07;0.80;;;;;;;11.67;79.75;99437.16;5030802;28;20414;-79
2022/11/04 05:26:24;;;;;;;2.93;0.80;;;;;;;11.66;79.85;99424.66;5019796;28;20415;-79
2022/11/04 05:28:49;;;;;;;3.90;0.83;;;;;;;11.64;79.92;99423.34;5033240;28;20418;-79
2022/11/04 05:31:15;;;;;;;2.17;0.87;;;;;;;11.62;80.25;99401.91;5033614;28;20395;-79
2022/11/04 05:33:40;;;;;;;3.40;0.80;;;;;;;11.59;80.13;99407.09;5024204;28;20409;-79
2022/11/04 05:36:06;;;;;;;2.30;1.00;;;;;;;11.59;80.14;99407.09;5026983;28;20401;-79
2022/11/04 05:38:32;;;;;;;2.85;0.80;;;;;;;11.56;80.25;99404.94;5047659;28;20387;-79
2022/11/04 05:40:57;;;;;;;1.67;0.80;;;;;;;11.52;80.07;99403.84;5013544;28;20480;-79
2022/11/04 05:43:23;;;;;;;1.20;0.90;;;;;;;11.47;80.59;99404.66;5013625;28;20420;-79
2022/11/04 05:45:48;;;;;;;3.03;0.70;;;;;;;11.42;80.40;99415.53;5025223;28;20986;-79
2022/11/04 05:48:13;;;;;;;3.83;0.70;;;;;;;11.42;80.36;99416.38;5003624;28;20400;-79
2022/11/04 05:50:40;;;;;;;1.60;0.67;;;;;;;11.45;80.10;99421.22;5027642;28;20493;-79
2022/11/04 05:53:06;;;;;;;2.35;1.10;;;;;;;11.50;80.17;99430.41;5021871;28;20898;-79
2022/11/04 05:55:31;;;;;;;1.20;0.63;;;;;;;11.51;79.97;99427.44;5015211;28;20401;-79
2022/11/04 05:57:57;;;;;;;2.20;0.90;;;;;;;11.50;80.27;99439.38;5010181;28;20484;-78
2022/11/04 06:00:25;;;;;;;2.10;0.80;;;;;;;11.49;79.99;99426.09;5010850;28;20919;-79
2022/11/04 06:02:50;;;;;;;3.45;0.82;;;;;;;11.52;80.12;99420.94;5013459;28;20882;-79
2022/11/04 06:05:18;;;;;;;3.30;1.20;;;;;;;11.52;80.06;99428.25;5011099;28;20487;-79
2022/11/04 06:07:44;;;;;;;1.15;0.68;;;;;;;11.50;80.25;99431.25;5015867;28;20420;-79
2022/11/04 06:10:09;;;;;;;1.73;0.83;;;;;;;11.51;79.87;99432.06;5014607;28;20758;-79
2022/11/04 06:12:34;;;;;;;2.00;1.17;;;;;;;11.51;80.00;99432.06;5021512;28;20400;-79
2022/11/04 06:15:03;;;;;;;1.50;1.40;;;;;;;11.49;79.83;99431.53;5023957;28;20385;-79
2022/11/04 06:17:28;;;;;;;2.25;1.48;;;;;;;11.46;80.03;99439.13;5010298;28;20449;-79
2022/11/04 06:19:53;;;;;;;3.03;1.40;;;;;;;11.43;80.07;99436.13;5030257;28;20845;-78
2022/11/04 06:22:19;;;;;;;3.50;1.33;;;;;;;11.42;80.28;99440.78;5018294;28;20452;-79
2022/11/04 06:24:44;;;;;;;2.40;0.90;;;;;;;11.43;80.31;99441.56;5012121;28;20400;-78
2022/11/04 06:27:10;;;;;;;2.53;1.02;;;;;;;11.41;80.30;99441.03;5012017;28;20416;-79
2022/11/04 06:29:40;;;;;;;5.18;1.27;;;;;;;11.39;80.54;99435.88;5014231;28;20464;-79
2022/11/04 06:32:07;;;;;;;3.45;0.93;;;;;;;11.35;80.61;99426.69;5014536;28;20405;-80
2022/11/04 06:34:32;;;;;;;1.67;0.90;;;;;;;11.36;80.67;99433.72;5009614;28;20871;-78
2022/11/04 06:36:57;;;;;;;1.60;1.13;;;;;;;11.41;80.36;99438.31;5050916;28;20545;-79
2022/11/04 06:39:22;;;;;;;1.50;1.20;;;;;;;11.39;80.19;99430.44;5017290;28;20499;-79
2022/11/04 06:41:48;;;;;;;1.77;1.50;;;;;;;11.39;80.35;99433.16;4943442;28;1762493;-78
2022/11/04 06:44:13;;;;;;;3.28;1.40;;;;;;;11.41;80.17;99432.91;5018707;28;20417;-78
2022/11/04 06:46:40;;;;;;;1.60;1.50;;;;;;;11.42;80.21;99434.53;5008948;28;20502;-78
2022/11/04 06:49:10;;;;;;;2.28;1.45;;;;;;;11.45;80.42;99437.50;5004510;28;20843;-80
2022/11/04 06:51:35;;;;;;;4.90;1.83;;;;;;;11.48;80.32;99447.00;5016179;28;20402;-79
2022/11/04 06:54:01;;;;;;;4.03;2.03;;;;;;;11.53;80.30;99457.00;5024020;28;20401;-79
2022/11/04 06:56:26;;;;;;;2.43;1.20;;;;;;;11.56;80.05;99451.84;5010168;28;20785;-80
2022/11/04 06:58:53;;;;;;;3.20;1.00;;;;;;;11.59;80.03;99458.63;5027329;28;20406;-79
2022/11/04 07:01:21;;;;;;;4.13;1.00;;;;;;;11.60;79.87;99466.50;5031450;28;20414;-79
2022/11/04 07:03:54;;;;;;;1.42;0.98;;;;;;;11.59;79.91;99459.44;5028360;28;20426;-79
2022/11/04 07:06:20;;;;;;;9.30;1.40;;;;;;;11.60;80.00;99462.97;5020626;28;20887;-79
2022/11/04 07:08:47;;;;;;;8.85;1.42;;;;;;;11.61;79.86;99462.69;5013774;28;20909;-79
2022/11/04 07:11:13;;;;;;;3.35;0.98;;;;;;;11.47;80.50;99467.06;5017472;28;20460;-80
2022/11/04 07:13:39;;;;;;;6.65;1.05;;;;;;;11.46;80.73;99473.56;5018646;28;20395;-79
2022/11/04 07:16:08;;;;;;;1.60;1.05;;;;;;;11.49;80.82;99474.94;5021074;28;20402;-80
2022/11/04 07:18:33;;;;;;;3.15;0.88;;;;;;;11.50;80.75;99479.25;5029762;28;20471;-78
2022/11/04 07:20:59;;;;;;;6.40;1.10;;;;;;;11.52;80.78;99485.25;5022271;28;20498;-79
2022/11/04 07:23:24;;;;;;;5.57;1.00;;;;;;;11.54;81.02;99480.34;5024378;28;20396;-79
2022/11/04 07:25:50;;;;;;;3.60;0.93;;;;;;;11.55;80.94;99476.56;5011892;28;20756;-80
2022/11/04 07:28:16;;;;;;;0.88;0.80;;;;;;;11.58;81.03;99478.72;5027540;28;20889;-79
2022/11/04 07:30:41;;;;;;;3.78;1.17;;;;;;;11.58;80.92;99481.44;5027743;28;20403;-80
2022/11/04 07:33:07;;;;;;;5.03;2.00;;;;;;;11.60;81.11;99473.81;5031329;28;20395;-80
2022/11/04 07:35:32;;;;;;;1.87;1.30;;;;;;;11.61;80.80;99476.25;5030540;28;20770;-80
2022/11/04 07:37:57;;;;;;;1.60;0.80;;;;;;;11.62;80.77;99477.91;5018166;28;20426;-80
2022/11/04 07:40:23;;;;;;;1.77;0.90;;;;;;;11.69;80.46;99472.19;5030039;28;20396;-79
2022/11/04 07:42:48;;;;;;;1.95;1.10;;;;;;;11.72;80.32;99475.16;5026086;28;20801;-79
2022/11/04 07:45:14;;;;;;;5.47;1.20;;;;;;;11.75;79.90;99471.91;5017948;28;20895;-80
2022/11/04 07:47:39;;;;;;;4.75;1.20;;;;;;;11.75;79.81;99461.06;5026856;28;20875;-79
2022/11/04 07:50:05;;;;;;;5.87;1.10;;;;;;;11.77;79.80;99460.78;5017330;28;20800;-78
2022/11/04 07:52:30;;;;;;;1.33;1.07;;;;;;;11.80;79.90;99460.22;5009844;28;20408;-78
2022/11/04 07:54:55;;;;;;;2.23;1.07;;;;;;;11.76;79.73;99464.56;5017825;28;20407;-80
2022/11/04 07:57:21;;;;;;;1.30;0.90;;;;;;;11.77;79.52;99453.44;5022583;28;20478;-77
2022/11/04 07:59:46;;;;;;;2.00;0.98;;;;;;;11.81;79.11;99457.25;5011117;28;20445;-77
2022/11/04 08:02:12;;;;;;;1.83;0.80;;;;;;;11.86;79.06;99443.63;5030415;28;20968;-77
2022/11/04 08:04:37;;;;;;;4.97;0.80;;;;;;;11.91;78.61;99440.09;5023324;28;20396;-77
2022/11/04 08:07:06;;;;;;;1.50;0.80;;;;;;;11.96;77.71;99440.88;5009193;28;20405;-78
2022/11/04 08:09:31;;;;;;;2.78;1.35;;;;;;;11.98;78.14;99445.22;5024152;28;20391;-78
2022/11/04 08:11:56;;;;;;;2.40;1.60;;;;;;;11.97;77.96;99441.69;5030131;28;20395;-78
2022/11/04 08:14:21;;;;;;;2.50;1.30;;;;;;;12.02;77.67;99438.94;5030194;28;20399;-77
2022/11/04 08:16:49;;;;;;;4.70;1.47;;;;;;;12.05;77.44;99435.69;5007426;28;20402;-77
2022/11/04 08:19:15;;;;;;;1.50;1.20;;;;;;;12.15;77.06;99429.41;5008774;28;20405;-78
2022/11/04 08:21:40;;;;;;;1.70;0.90;;;;;;;12.17;77.03;99427.19;5022142;28;20419;-78
2022/11/04 08:24:05;;;;;;;6.20;1.40;;;;;;;12.23;76.36;99426.06;5030003;28;20782;-78
2022/11/04 08:26:31;;;;;;;3.13;1.37;;;;;;;12.25;76.52;99426.63;5030109;28;20486;-78
2022/11/04 08:28:56;;;;;;;4.03;1.30;;;;;;;12.26;76.56;99420.91;5029060;28;20406;-78
2022/11/04 08:31:29;;;;;;;1.93;0.77;;;;;;;12.34;76.43;99428.47;5013321;28;20409;-79
2022/11/04 08:33:55;;;;;;;1.40;0.93;;;;;;;12.34;76.22;99419.50;5020928;28;20727;-78
2022/11/04 08:36:23;;;;;;;1.05;0.88;;;;;;;12.38;76.23;99421.34;5030039;28;20453;-79
2022/11/04 08:38:48;;;;;;;0.80;0.70;;;;;;;12.44;76.31;99419.44;5020833;28;20462;-78
2022/11/04 08:41:18;;;;;;;1.70;0.82;;;;;;;12.53;75.60;99414.19;5026345;28;20385;-78
2022/11/04 08:43:45;;;;;;;1.83;0.85;;;;;;;12.59;75.71;99411.16;5021594;28;20406;-79
2022/11/04 08:46:11;;;;;;;2.17;1.10;;;;;;;12.70;75.48;99420.06;5028199;28;20395;-80
2022/11/04 08:48:38;;;;;;;6.45;1.20;;;;;;;12.82;74.90;99425.94;5018607;28;20396;-79
2022/11/04 08:51:05;;;;;;;2.70;0.73;;;;;;;12.89;74.55;99427.25;5010753;28;20393;-80
2022/11/04 08:53:30;;;;;;;3.40;1.25;;;;;;;12.92;74.55;99415.78;5018020;28;20387;-81
2022/11/04 08:55:56;;;;;;;2.60;0.90;;;;;;;12.91;74.29;99414.16;5018475;28;20424;-79
2022/11/04 08:58:23;;;;;;;4.70;1.27;;;;;;;13.01;74.32;99418.69;5026962;28;20879;-81
2022/11/04 09:00:49;;;;;;;5.03;2.55;;;;;;;13.14;73.48;99411.84;5025320;28;20941;-80
2022/11/04 09:03:15;;;;;;;2.42;1.00;;;;;;;13.15;73.08;99418.88;5014272;28;20519;-80
2022/11/04 09:05:46;;;;;;;3.35;0.85;;;;;;;13.06;73.73;99426.00;5001575;28;20765;-80
2022/11/04 09:08:12;;;;;;;4.78;1.00;;;;;;;13.20;73.48;99435.16;5017728;28;20392;-78
2022/11/04 09:10:47;;;;;;;3.42;1.40;;;;;;;13.27;73.00;99441.09;5005390;28;20391;-81
2022/11/04 09:13:14;;;;;;;4.55;1.00;;;;;;;13.26;72.49;99434.81;5055342;28;20406;-81
2022/11/04 09:15:40;;;;;;;2.88;1.02;;;;;;;13.20;72.13;99437.88;5028678;28;20403;-80
2022/11/04 09:18:06;;;;;;;4.30;0.95;;;;;;;13.32;72.31;99436.41;5003437;28;20417;-80
2022/11/04 09:20:33;;;;;;;2.17;0.65;;;;;;;13.47;71.67;99441.66;5009228;28;20405;-79
2022/11/04 09:22:58;;;;;;;3.10;1.20;;;;;;;13.49;71.71;99441.41;5010287;28;20417;-80
2022/11/04 09:25:24;;;;;;;4.30;1.02;;;;;;;13.51;71.73;99434.56;5011694;28;20397;-80
2022/11/04 09:27:49;;;;;;;4.15;1.20;;;;;;;13.56;71.75;99444.59;5012897;28;20440;-81
2022/11/04 09:30:16;;;;;;;6.63;1.23;;;;;;;13.75;71.20;99450.09;5012674;28;20888;-79
2022/11/04 09:32:41;;;;;;;5.25;1.10;;;;;;;14.18;69.58;99457.19;5020456;28;20413;-80
2022/11/04 09:35:07;;;;;;;7.13;1.10;;;;;;;14.08;69.56;99457.31;5012007;28;20451;-81
2022/11/04 09:37:32;;;;;;;3.08;1.20;;;;;;;13.96;69.51;99465.09;5025345;28;20490;-82
2022/11/04 09:39:58;;;;;;;3.50;0.70;;;;;;;13.93;69.53;99461.03;5021317;28;20409;-79
2022/11/04 09:42:31;;;;;;;6.50;0.67;;;;;;;13.83;69.51;99469.31;5009731;28;20932;-80
2022/11/04 09:45:01;;;;;;;6.53;0.85;;;;;;;13.83;69.68;99477.47;5008012;28;20814;-80
2022/11/04 09:47:29;;;;;;;5.30;1.20;;;;;;;13.78;69.68;99466.66;5013864;28;20423;-80
2022/11/04 09:49:57;;;;;;;3.35;1.05;;;;;;;13.73;69.47;99466.69;5021414;28;20389;-80
2022/11/04 09:52:24;;;;;;;3.13;0.63;;;;;;;13.71;69.22;99470.81;5030394;28;20480;-80
2022/11/04 09:54:58;;;;;;;3.13;0.70;;;;;;;13.67;68.76;99469.78;5023035;28;20941;-81
2022/11/04 09:57:23;;;;;;;3.83;0.60;;;;;;;13.63;68.89;99463.31;5032368;28;20398;-81
2022/11/04 09:59:49;;;;;;;3.83;0.80;;;;;;;13.57;67.96;99472.63;5020074;28;20419;-80
2022/11/04 10:02:32;;;;;;;2.95;0.65;;;;;;;13.56;68.43;99471.00;5020375;28;20418;-81
2022/11/04 10:05:06;;;;;;;2.17;0.83;;;;;;;13.61;68.49;99481.81;5023441;28;20564;-80
2022/11/04 10:07:49;;;;;;;5.72;0.85;;;;;;;13.58;68.30;99475.03;5018568;28;20891;-80
2022/11/04 10:10:27;;;;;;;5.07;1.00;;;;;;;13.58;68.33;99482.41;5027515;28;20770;-78
2022/11/04 10:13:18;;;;;;;1.92;0.90;;;;;;;13.50;68.20;99483.84;5030814;28;20904;-78
2022/11/04 10:16:05;;;;;;;3.25;0.77;;;;;;;13.53;67.82;99486.00;5021828;28;20788;-78
2022/11/04 10:19:14;;;;;;;6.70;0.95;;;;;;;13.62;67.96;99478.00;5032816;28;20457;-78
2022/11/04 10:22:00;;;;;;;4.07;1.15;;;;;;;13.65;68.12;99474.69;5020114;28;20418;-78
2022/11/04 10:24:51;;;;;;;4.30;1.25;;;;;;;13.71;67.85;99468.91;5032691;28;20399;-78
2022/11/04 10:27:24;;;;;;;4.43;0.70;;;;;;;13.78;67.39;99474.00;5030981;28;20503;-78
2022/11/04 10:30:05;;;;;;;4.65;0.98;;;;;;;13.79;67.56;99471.00;5029678;28;20425;-78
2022/11/04 10:32:40;;;;;;;4.07;0.85;;;;;;;13.78;68.32;99465.84;5023098;28;20474;-78
2022/11/04 10:35:29;;;;;;;3.03;0.80;;;;;;;13.77;68.30;99472.38;5015033;28;20401;-78
2022/11/04 10:37:57;;;;;;;3.85;0.77;;;;;;;13.69;68.60;99465.69;5017188;28;20405;-78
2022/11/04 10:40:25;;;;;;;3.83;0.90;;;;;;;13.72;68.99;99465.09;5024156;28;20403;-78
2022/11/04 10:42:52;;;;;;;3.03;0.70;;;;;;;13.74;68.45;99468.34;5029138;28;20427;-77
2022/11/04 10:45:21;;;;;;;4.30;0.80;;;;;;;13.75;68.43;99459.06;5036807;28;20436;-78
2022/11/04 10:48:13;;;;;;;3.78;1.05;;;;;;;13.77;68.32;99466.94;5004925;28;20399;-78
2022/11/04 10:50:52;;;;;;;3.17;1.10;;;;;;;13.83;68.26;99460.34;5023927;28;20407;-78
2022/11/04 10:53:22;;;;;;;5.75;1.20;;;;;;;13.93;68.48;99465.66;5013722;28;20425;-78
2022/11/04 10:55:57;;;;;;;6.27;1.53;;;;;;;13.99;68.29;99469.97;5054350;28;20773;-78
2022/11/04 10:58:28;;;;;;;6.95;3.78;;;;;;;13.88;69.07;99466.53;5015729;28;20797;-78
2022/11/04 11:00:54;;;;;;;16.15;1.88;;;;;;;13.85;69.25;99463.59;5023626;28;20438;-78
2022/11/04 11:03:27;;;;;;;6.45;2.08;;;;;;;13.92;69.84;99464.06;5020986;28;20420;-78
2022/11/04 11:06:09;;;;;;;5.65;1.80;;;;;;;13.96;70.46;99462.38;5017848;28;20773;-78
2022/11/04 11:08:38;;;;;;;4.60;2.63;;;;;;;14.04;70.87;99461.72;5018065;28;20441;-78
2022/11/04 11:11:06;;;;;;;5.70;1.90;;;;;;;14.19;71.12;99464.25;5015368;28;20410;-78
2022/11/04 11:13:41;;;;;;;5.95;2.17;;;;;;;14.27;71.15;99457.31;5020803;28;20473;-78
2022/11/04 11:16:18;;;;;;;6.80;2.30;;;;;;;14.31;71.17;99467.38;5024869;28;20468;-78
2022/11/04 11:18:43;;;;;;;5.70;1.63;;;;;;;14.39;70.57;99461.25;5012558;28;20393;-78
2022/11/04 11:21:15;;;;;;;3.77;1.30;;;;;;;14.45;70.72;99462.84;5024729;28;20389;-78
2022/11/04 11:23:41;;;;;;;1.13;0.88;;;;;;;14.46;70.96;99464.44;5010067;28;20403;-78
2022/11/04 11:26:13;;;;;;;4.53;1.10;;;;;;;14.49;70.92;99468.50;5024211;28;20430;-78
2022/11/04 11:28:39;;;;;;;3.65;1.35;;;;;;;14.52;71.00;99454.31;5020371;28;20451;-78
2022/11/04 11:31:23;;;;;;;3.97;1.30;;;;;;;14.61;70.54;99459.88;5022944;28;20487;-79
2022/11/04 11:33:56;;;;;;;2.63;1.00;;;;;;;14.69;70.29;99453.75;5023557;28;20445;-78
2022/11/04 11:36:29;;;;;;;3.40;1.10;;;;;;;14.82;69.35;99448.34;5027610;28;20389;-79
2022/11/04 11:39:22;;;;;;;4.30;2.28;;;;;;;14.88;69.36;99451.84;5016266;28;20448;-78
2022/11/04 11:42:06;;;;;;;7.60;2.28;;;;;;;14.84;69.67;99450.81;5019011;28;20418;-79
2022/11/04 11:44:43;;;;;;;6.50;2.00;;;;;;;14.81;69.83;99441.31;5036475;28;20437;-78
2022/11/04 11:47:21;;;;;;;4.45;1.52;;;;;;;14.77;69.74;99434.00;5054615;28;20482;-78
2022/11/04 11:50:06;;;;;;;2.75;1.20;;;;;;;14.74;69.79;99429.97;5017753;28;20792;-78
2022/11/04 11:52:34;;;;;;;5.40;1.25;;;;;;;14.73;69.60;99433.78;5034211;28;20407;-78
2022/11/04 11:55:17;;;;;;;5.85;1.08;;;;;;;14.71;69.86;99429.72;5023058;28;20396;-79
2022/11/04 11:57:51;;;;;;;4.45;1.08;;;;;;;14.72;69.92;99425.91;5021625;28;20391;-78
2022/11/04 12:00:19;;;;;;;4.25;0.85;;;;;;;14.77;69.01;99420.38;5020247;28;20479;-79
2022/11/04 12:02:54;;;;;;;3.13;0.80;;;;;;;14.79;68.26;99412.69;5021593;28;20476;-79
2022/11/04 12:05:34;;;;;;;2.00;0.73;;;;;;;14.73;67.76;99420.16;5015584;28;20397;-79
2022/11/04 12:08:23;;;;;;;2.85;0.80;;;;;;;14.71;67.35;99410.66;5028398;28;20483;-79
2022/11/04 12:11:01;;;;;;;2.05;0.90;;;;;;;14.91;65.69;99413.88;5016145;28;20909;-79
2022/11/04 12:13:51;;;;;;;4.63;1.10;;;;;;;14.85;65.77;99412.28;5018179;28;20407;-78
2022/11/04 12:16:33;;;;;;;3.88;0.82;;;;;;;14.78;65.89;99409.16;5048596;28;20887;-78
2022/11/04 12:19:20;;;;;;;6.80;1.10;;;;;;;14.78;65.46;99411.09;5023505;28;20453;-77
2022/11/04 12:22:11;;;;;;;3.17;0.70;;;;;;;14.74;65.60;99424.50;5012864;28;20409;-77
2022/11/04 12:25:18;;;;;;;3.90;1.15;;;;;;;14.78;65.48;99413.81;5005800;28;20416;-79